logo
Rechercher aéroport 
image banner adimage banner adimage banner ad
image banner ad

EDEH - Herrenteich

Situé à Schwetzingen, Germany

ICAO - EDEH, IATA -

Données fournies par Airmate  

Information générale

Coordonnées: N49°20'42" E8°29'16"
Élévation : 308 feet MSL.
Variation magnétique : 3.0000° East
Voir autres Aéroports à Baden-Württemberg

Données opérationnelles

Special qualification required
Heure actuelle UTC:
Heure actuelle locale:
Météo à : EDFM - Mannheim City ( 14 km )
METAR: EDFM 231950Z AUTO 23005KT 9999 // SCT040/// 21/19 Q1018
TAF: TAF EDFM 231700Z 2318/2321 23007KT 9999 BKN030 PROB30 TEMPO 2318/2319 4000 TSRA BKN025CB
Voir NOTAMs / SUP AIP / TFR affectant cet aéroport [VIEW]
Fréquences de communication: [VIEW]

Pistes:

Identifiant RWYQFULongueur (ft)Largeur (ft)SurfaceLDA (ft)
0438°208398GRASS2083
22218°208398GRASS1755

Coordonnées de l'aéroport

Adresse: Schwetzingen Germany

Vue satellite de EDEH